PILOTS ONLINE: 316    ATC ONLINE: 42

KCWA - Central Wisconsin Airport

Location

IATA CWA
City Mosinee
Country  United States
Latitude 44° 46' 39" N
Longitude 89° 40' 0" W
Elevation 1277 ft
Type Medium Airport

Runways

08/26 7645 ft / 150 ft
17/35 6501 ft / 150 ft

Weather

METAR
2014/07/26 04:55
KCWA 260455Z AUTO 19008KT 10SM OVC070 17/17 A2988 RMK AO2
TAF
2014/07/25 18:51
TAF 
      AMD KCWA 251748Z 2518/2618 19010KT P6SM BKN018 OVC050 
     FM260600 23004KT 5SM BR SCT009 OVC015 
     FM260900 27003KT 3SM BR OVC009 
     FM261300 29008KT P6SM BKN015 
     FM261700 28008KT P6SM SCT030

Outbound flights

Inbound flights